Time;durP1;ratioP1;P1;durP2;ratioP2;P2;SDS_P1;SDS_P2;PMS_P1;PMS_P2;Temp;Humidity;BMP_temperature;BMP_pressure;BME280_temperature;BME280_humidity;BME280_pressure;Samples;Min_cycle;Max_cycle;Signal;HPM_P1;HPM_P2
2022/12/22 03:29:19;;;;;;;4.23;2.07;;;;;;;10.96;58.31;98854.97;10317994;28;20620;-67
2022/12/22 03:34:21;;;;;;;2.00;1.90;;;;;;;11.58;58.77;98884.84;10317210;28;20812;-66
2022/12/22 03:39:22;;;;;;;1.90;1.57;;;;;;;10.03;62.17;98960.03;10315912;28;20240;-67
2022/12/22 03:49:44;;;;;;;5.43;1.83;;;;;;;9.33;63.43;98910.19;10319293;28;20233;-68
2022/12/22 03:54:45;;;;;;;2.83;2.00;;;;;;;9.90;63.53;98902.00;10323491;28;20226;-68
2022/12/22 03:59:47;;;;;;;2.40;1.90;;;;;;;10.29;63.14;98861.16;10326563;28;20230;-67
2022/12/22 04:04:49;;;;;;;2.37;1.97;;;;;;;9.95;64.70;98908.38;10324038;28;20229;-68
2022/12/22 04:15:10;;;;;;;3.23;2.03;;;;;;;10.63;63.08;98824.53;10324097;28;20226;-68
2022/12/22 04:20:12;;;;;;;3.67;2.40;;;;;;;10.23;63.40;98840.59;10320522;28;20241;-68
2022/12/22 04:25:15;;;;;;;4.10;2.10;;;;;;;9.65;62.39;98824.22;10322477;28;20237;-68
2022/12/22 04:30:16;;;;;;;2.87;1.83;;;;;;;10.57;61.40;98816.50;10325107;28;20229;-68
2022/12/22 04:35:18;;;;;;;3.27;2.17;;;;;;;8.53;65.29;98797.63;10325672;28;20323;-68
2022/12/22 04:40:20;;;;;;;2.00;1.83;;;;;;;9.75;62.91;98843.34;10323647;28;20229;-66
2022/12/22 04:45:22;;;;;;;3.10;1.90;;;;;;;10.95;60.48;98797.94;10320726;28;20644;-68
2022/12/22 04:50:23;;;;;;;2.60;2.37;;;;;;;11.18;60.29;98807.31;10319982;28;20616;-68
2022/12/22 04:55:25;;;;;;;2.17;1.97;;;;;;;10.14;61.94;98871.22;10320884;28;20745;-68
2022/12/22 05:05:20;;;;;;;3.77;2.10;;;;;;;8.93;66.79;98853.91;10474868;27;20986;-68
2022/12/22 05:10:22;;;;;;;5.07;2.10;;;;;;;9.73;64.79;98829.38;10427527;28;20239;-69
2022/12/22 05:15:26;;;;;;;2.97;2.13;;;;;;;9.50;64.30;98809.22;10421000;28;20239;-68
2022/12/22 05:20:28;;;;;;;1.77;1.67;;;;;;;8.17;66.45;98856.38;10420159;28;20232;-68
2022/12/22 05:25:30;;;;;;;4.87;2.37;;;;;;;9.72;63.76;98815.22;10422945;28;20228;-68
2022/12/22 05:30:35;;;;;;;4.90;2.47;;;;;;;9.54;64.31;98812.28;10421126;28;20243;-73
2022/12/22 05:35:37;;;;;;;4.80;2.17;;;;;;;10.04;62.46;98823.53;10420860;28;20664;-69
2022/12/22 05:40:39;;;;;;;3.70;2.47;;;;;;;9.20;64.30;98862.88;10417486;28;20761;-70
2022/12/22 05:45:40;;;;;;;6.33;2.00;;;;;;;9.16;64.17;98839.44;10420936;28;20259;-68
2022/12/22 05:50:44;;;;;;;3.23;2.10;;;;;;;8.87;64.44;98805.84;10420574;28;20654;-68
2022/12/22 05:55:46;;;;;;;4.07;1.93;;;;;;;7.95;66.36;98848.41;10420512;28;20243;-68
2022/12/22 06:00:48;;;;;;;4.93;2.17;;;;;;;8.74;65.63;98854.56;10459358;28;20246;-71
2022/12/22 06:05:50;;;;;;;4.10;2.30;;;;;;;9.37;63.36;98809.16;10460995;28;20751;-67
2022/12/22 06:10:57;;;;;;;4.87;2.33;;;;;;;8.72;63.40;98803.28;10459384;28;20243;-69
2022/12/22 06:15:58;;;;;;;3.53;2.43;;;;;;;9.26;62.25;98793.72;10441182;28;20228;-67
2022/12/22 06:21:00;;;;;;;6.13;2.40;;;;;;;8.28;63.98;98858.53;10416159;28;20654;-66
2022/12/22 06:27:15;;;;;;;2.73;2.37;;;;;;;9.62;60.94;98816.63;10395292;28;20228;-67
2022/12/22 06:33:31;;;;;;;6.23;2.60;;;;;;;9.80;60.53;98856.94;10394564;28;20267;-66
2022/12/22 06:39:47;;;;;;;5.37;2.50;;;;;;;10.50;59.19;98872.69;10383420;28;20714;-67
2022/12/22 18:01:29;;;;;;;17.67;5.23;;;;;;;10.01;59.40;99072.50;10343998;28;20314;-40
2022/12/22 18:06:40;;;;;;;10.67;4.60;;;;;;;11.29;57.31;99028.94;10352935;28;20226;-38
2022/12/22 18:11:48;;;;;;;11.20;3.60;;;;;;;9.84;60.20;99096.03;10351906;28;20625;-38
2022/12/22 18:16:56;;;;;;;18.77;5.23;;;;;;;10.41;59.13;99045.94;10352798;28;20225;-41
2022/12/22 18:22:04;;;;;;;14.20;3.93;;;;;;;10.33;59.84;99051.44;10353681;28;20335;-38
2022/12/22 18:27:13;;;;;;;10.80;4.40;;;;;;;10.39;60.31;99028.41;10350452;28;20236;-38
2022/12/22 18:32:21;;;;;;;17.63;4.97;;;;;;;10.99;59.29;98993.75;10350556;28;20737;-38
2022/12/22 18:37:29;;;;;;;13.43;4.67;;;;;;;10.74;60.05;98996.19;10351129;28;20730;-38
2022/12/22 18:42:37;;;;;;;15.47;4.60;;;;;;;9.96;62.25;99057.03;10351165;28;20240;-38
2022/12/22 18:47:46;;;;;;;9.37;3.73;;;;;;;9.14;64.19;99063.84;10350505;28;20228;-38
2022/12/22 18:52:57;;;;;;;9.27;4.33;;;;;;;9.88;63.52;99057.22;10350614;28;20231;-39
2022/12/22 18:58:12;;;;;;;10.73;4.20;;;;;;;9.14;64.56;99036.34;10350037;28;20240;-38
2022/12/22 19:03:24;;;;;;;8.90;3.40;;;;;;;9.14;65.27;99036.34;10352961;28;20606;-39
2022/12/22 19:08:33;;;;;;;21.70;4.97;;;;;;;10.31;63.03;98954.56;10350695;28;20635;-38
2022/12/22 19:13:49;;;;;;;9.80;3.70;;;;;;;9.96;62.95;98957.34;10352195;28;20578;-38
2022/12/22 19:19:00;;;;;;;18.93;4.73;;;;;;;9.86;63.06;98951.56;10331543;28;20229;-38
2022/12/22 19:24:08;;;;;;;12.90;4.37;;;;;;;9.61;64.42;98956.53;10350935;28;20634;-38
2022/12/22 19:29:17;;;;;;;9.10;3.40;;;;;;;10.32;62.79;98930.25;10358158;28;20578;-38
2022/12/22 19:34:25;;;;;;;14.37;4.30;;;;;;;9.50;65.12;98960.59;10359774;28;20609;-38
2022/12/22 19:39:33;;;;;;;11.17;4.20;;;;;;;9.80;64.44;98965.66;10358784;28;20233;-38
2022/12/22 19:44:42;;;;;;;11.07;3.83;;;;;;;10.14;64.55;98930.03;10358758;28;20245;-38
2022/12/22 19:49:51;;;;;;;10.90;3.83;;;;;;;10.22;63.08;98902.28;10358027;28;20303;-38
2022/12/22 19:55:00;;;;;;;13.73;3.63;;;;;;;10.85;62.72;98888.56;10340776;28;20225;-38
2022/12/22 20:00:24;;;;;;;9.33;2.83;;;;;;;10.23;64.15;98878.03;10359424;28;20237;-41
2022/12/22 20:05:33;;;;;;;15.60;4.10;;;;;;;10.91;62.08;98874.31;10339591;28;20244;-39
2022/12/22 20:10:41;;;;;;;8.40;3.27;;;;;;;9.72;64.29;98964.81;10359841;28;20765;-39
2022/12/22 20:15:59;;;;;;;16.90;4.63;;;;;;;10.21;63.54;98914.00;10358769;28;20235;-38
2022/12/22 20:21:13;;;;;;;11.37;4.17;;;;;;;10.18;62.47;98907.22;10360505;28;20271;-38
2022/12/22 20:26:24;;;;;;;7.53;2.87;;;;;;;9.46;64.93;98946.00;10352330;28;20248;-38
2022/12/22 20:31:32;;;;;;;11.60;3.47;;;;;;;10.65;62.57;98862.59;10348346;28;20234;-39
2022/12/22 20:36:42;;;;;;;5.17;2.90;;;;;;;9.24;65.20;98897.19;10346165;28;20320;-38
2022/12/22 20:41:50;;;;;;;10.07;4.03;;;;;;;9.97;63.19;98822.66;10354837;28;20229;-40
2022/12/22 20:46:59;;;;;;;13.73;4.47;;;;;;;10.83;61.88;98805.78;10353054;28;20236;-40
2022/12/22 20:52:13;;;;;;;10.93;4.30;;;;;;;10.23;63.46;98829.09;10355770;28;20229;-42
2022/12/22 20:57:22;;;;;;;9.23;3.63;;;;;;;9.51;64.60;98855.41;10356766;28;20229;-41
2022/12/22 21:02:31;;;;;;;11.00;3.87;;;;;;;9.83;64.33;98845.88;10359162;28;20599;-42
2022/12/22 21:07:41;;;;;;;8.20;3.53;;;;;;;9.49;64.91;98826.25;10355076;28;20229;-38
2022/12/22 21:12:50;;;;;;;8.67;3.27;;;;;;;10.32;63.79;98823.31;10356444;28;20316;-42
2022/12/22 21:17:58;;;;;;;10.77;3.30;;;;;;;9.59;63.85;98802.66;10350401;28;20239;-41
2022/12/22 21:23:06;;;;;;;14.43;3.70;;;;;;;10.24;62.99;98783.44;10358186;28;20229;-39
2022/12/22 21:28:30;;;;;;;13.53;3.90;;;;;;;10.10;62.82;98787.13;10360286;28;20236;-39
2022/12/22 21:33:38;;;;;;;13.03;3.80;;;;;;;11.85;59.30;98767.59;10360231;28;20221;-39
2022/12/22 21:38:46;;;;;;;8.37;3.20;;;;;;;10.74;61.29;98744.66;10356185;28;20229;-40
2022/12/22 21:43:54;;;;;;;5.87;2.60;;;;;;;10.66;61.09;98764.41;10358607;28;20233;-39
2022/12/22 21:49:02;;;;;;;6.90;3.17;;;;;;;10.18;63.60;98784.25;10350054;28;20259;-39
2022/12/22 21:54:10;;;;;;;6.73;3.00;;;;;;;9.66;64.28;98759.91;10355932;28;20222;-41
2022/12/22 21:59:18;;;;;;;8.03;3.03;;;;;;;10.51;63.07;98722.69;10354236;28;20233;-41
2022/12/22 22:04:27;;;;;;;7.97;3.20;;;;;;;9.83;63.75;98709.59;10357823;28;20265;-39
2022/12/22 22:09:35;;;;;;;10.73;2.93;;;;;;;10.11;63.11;98695.22;10350516;28;20760;-39
2022/12/22 22:14:43;;;;;;;9.23;3.60;;;;;;;9.50;65.33;98745.13;10353111;28;20233;-42
2022/12/22 22:19:51;;;;;;;8.17;2.60;;;;;;;9.26;65.31;98729.66;10354524;28;20239;-39
2022/12/22 22:24:59;;;;;;;5.17;2.27;;;;;;;9.15;65.08;98726.53;10354152;28;20229;-40
2022/12/22 22:30:14;;;;;;;6.03;2.53;;;;;;;9.25;65.76;98723.50;10353598;28;20256;-41
2022/12/22 22:35:26;;;;;;;8.77;2.97;;;;;;;9.61;64.52;98710.81;10355005;28;20225;-39
2022/12/22 22:40:35;;;;;;;6.40;2.60;;;;;;;9.58;63.70;98667.47;10355562;28;20773;-39
2022/12/22 22:45:43;;;;;;;5.70;3.23;;;;;;;9.48;64.47;98667.03;10351237;28;20259;-40
2022/12/22 22:50:51;;;;;;;6.33;2.63;;;;;;;9.68;63.78;98624.28;10354368;28;20234;-42
2022/12/22 22:56:02;;;;;;;8.97;3.07;;;;;;;9.13;64.75;98682.38;10351664;28;20229;-40
2022/12/22 23:01:10;;;;;;;4.97;2.30;;;;;;;9.85;64.01;98640.75;10351926;28;20544;-41
2022/12/22 23:06:19;;;;;;;6.30;2.80;;;;;;;10.17;62.25;98616.84;10352724;28;20715;-40
2022/12/22 23:11:27;;;;;;;4.70;2.80;;;;;;;10.76;61.40;98639.06;10353796;28;20737;-41
2022/12/22 23:16:35;;;;;;;6.43;2.97;;;;;;;9.51;63.63;98692.50;10351089;28;20320;-41
2022/12/22 23:21:44;;;;;;;6.07;2.90;;;;;;;11.13;59.13;98630.41;10355535;28;20225;-41
2022/12/22 23:26:52;;;;;;;7.37;3.00;;;;;;;12.43;56.91;98677.13;10353174;28;20237;-41
2022/12/22 23:32:00;;;;;;;6.83;2.50;;;;;;;11.25;59.89;98666.16;10352701;28;20225;-42
2022/12/22 23:37:08;;;;;;;6.67;2.80;;;;;;;11.19;59.79;98659.84;10351937;28;20251;-40
2022/12/22 23:42:20;;;;;;;4.10;2.90;;;;;;;10.94;60.08;98670.47;10351531;28;20718;-41
2022/12/22 23:47:28;;;;;;;5.07;2.57;;;;;;;11.20;61.59;98663.31;10353350;28;20269;-44
2022/12/22 23:52:36;;;;;;;3.83;2.10;;;;;;;10.62;62.00;98694.47;10353694;28;20225;-39
2022/12/22 23:57:50;;;;;;;6.43;3.07;;;;;;;10.41;62.70;98660.81;10351270;28;20284;-39
